Time;durP1;ratioP1;P1;durP2;ratioP2;P2;SDS_P1;SDS_P2;PMS_P1;PMS_P2;Temp;Humidity;BMP_temperature;BMP_pressure;BME280_temperature;BME280_humidity;BME280_pressure;Samples;Min_cycle;Max_cycle;Signal;HPM_P1;HPM_P2
2023/12/22 00:00:58;;;;;;;5.63;4.30;;;;;;;;;;5053642;28;20045;-57
2023/12/22 00:03:23;;;;;;;5.65;3.88;;;;;;;;;;5044271;28;20045;-58
2023/12/22 00:05:48;;;;;;;5.50;4.13;;;;;;;;;;5038608;28;20102;-58
2023/12/22 00:08:14;;;;;;;5.97;4.00;;;;;;;;;;5044323;28;20516;-59
2023/12/22 00:10:39;;;;;;;6.32;4.60;;;;;;;;;;5045137;28;20076;-59
2023/12/22 00:13:04;;;;;;;5.25;4.25;;;;;;;;;;5045763;28;20044;-58
2023/12/22 00:15:30;;;;;;;5.25;4.25;;;;;;;;;;5042114;28;20040;-58
2023/12/22 00:17:55;;;;;;;6.50;4.72;;;;;;;;;;5040500;28;20037;-59
2023/12/22 00:20:20;;;;;;;5.82;4.15;;;;;;;;;;5056192;28;20123;-59
2023/12/22 00:22:46;;;;;;;5.97;4.60;;;;;;;;;;5061225;28;21102;-59
2023/12/22 00:25:11;;;;;;;5.93;4.10;;;;;;;;;;5045639;28;20033;-59
2023/12/22 00:27:37;;;;;;;6.03;4.40;;;;;;;;;;5044253;28;20451;-59
2023/12/22 00:30:02;;;;;;;5.88;4.28;;;;;;;;;;5028439;28;20044;-58
2023/12/22 00:32:27;;;;;;;5.22;4.40;;;;;;;;;;5040726;28;20037;-58
2023/12/22 00:34:53;;;;;;;5.60;4.50;;;;;;;;;;5039601;28;20418;-58
2023/12/22 00:37:18;;;;;;;6.03;4.38;;;;;;;;;;5041222;28;20039;-58
2023/12/22 00:39:43;;;;;;;6.40;4.68;;;;;;;;;;5035636;28;20049;-58
2023/12/22 00:42:08;;;;;;;5.93;4.38;;;;;;;;;;5051205;28;20039;-58
2023/12/22 00:44:34;;;;;;;7.22;4.80;;;;;;;;;;5042181;28;20040;-58
2023/12/22 00:46:59;;;;;;;5.93;4.53;;;;;;;;;;5050719;28;20029;-58
2023/12/22 00:49:24;;;;;;;6.57;4.72;;;;;;;;;;5042808;28;20156;-58
2023/12/22 00:51:50;;;;;;;6.90;4.63;;;;;;;;;;5050540;28;20047;-58
2023/12/22 00:54:15;;;;;;;5.60;4.40;;;;;;;;;;5055003;28;20130;-58
2023/12/22 00:56:40;;;;;;;5.97;4.43;;;;;;;;;;5036435;28;20418;-58
2023/12/22 00:59:06;;;;;;;6.05;4.50;;;;;;;;;;5045819;28;20041;-59
2023/12/22 01:01:31;;;;;;;6.05;4.60;;;;;;;;;;5052390;28;20580;-59
2023/12/22 01:03:57;;;;;;;6.35;4.60;;;;;;;;;;5040752;28;20404;-59
2023/12/22 01:06:22;;;;;;;7.10;4.50;;;;;;;;;;5037764;28;20123;-59
2023/12/22 01:08:49;;;;;;;6.78;4.50;;;;;;;;;;5045715;28;20044;-58
2023/12/22 01:11:15;;;;;;;6.07;4.55;;;;;;;;;;5043114;28;20037;-58
2023/12/22 01:13:41;;;;;;;5.97;4.55;;;;;;;;;;5007688;28;20393;-59
2023/12/22 01:16:06;;;;;;;6.50;4.63;;;;;;;;;;5041100;28;20112;-59
2023/12/22 01:18:31;;;;;;;6.07;4.68;;;;;;;;;;5045492;28;20049;-58
2023/12/22 01:20:57;;;;;;;6.07;4.50;;;;;;;;;;5048115;28;20040;-59
2023/12/22 01:23:22;;;;;;;6.28;4.75;;;;;;;;;;5057370;28;20487;-59
2023/12/22 01:25:47;;;;;;;5.90;4.50;;;;;;;;;;5042498;28;20039;-59
2023/12/22 01:28:13;;;;;;;8.02;5.10;;;;;;;;;;5032129;28;20033;-60
2023/12/22 01:30:38;;;;;;;6.03;4.43;;;;;;;;;;5039073;28;20120;-59
2023/12/22 01:33:03;;;;;;;6.28;4.35;;;;;;;;;;5049028;28;20040;-59
2023/12/22 01:35:29;;;;;;;6.53;4.70;;;;;;;;;;5046717;28;20060;-59
2023/12/22 01:37:54;;;;;;;5.72;4.75;;;;;;;;;;5041404;28;20025;-59
2023/12/22 01:40:19;;;;;;;5.63;4.47;;;;;;;;;;5046966;28;20067;-59
2023/12/22 01:42:46;;;;;;;7.28;4.88;;;;;;;;;;5036101;28;20081;-59
2023/12/22 01:45:11;;;;;;;5.35;4.40;;;;;;;;;;5043570;28;20082;-59
2023/12/22 01:47:36;;;;;;;6.75;5.10;;;;;;;;;;5043203;28;20037;-59
2023/12/22 01:50:02;;;;;;;5.97;4.63;;;;;;;;;;5037366;28;20037;-58
2023/12/22 01:52:28;;;;;;;6.22;4.82;;;;;;;;;;5042020;28;20506;-58
2023/12/22 01:54:54;;;;;;;6.72;4.90;;;;;;;;;;5043026;28;20040;-58
2023/12/22 01:57:20;;;;;;;6.25;4.60;;;;;;;;;;5021328;28;20044;-58
2023/12/22 01:59:46;;;;;;;6.07;4.75;;;;;;;;;;5040933;28;20049;-58
2023/12/22 02:02:11;;;;;;;6.65;5.00;;;;;;;;;;5031207;28;20067;-58
2023/12/22 02:04:36;;;;;;;6.80;5.00;;;;;;;;;;5039679;28;20507;-58
2023/12/22 02:07:02;;;;;;;7.03;4.93;;;;;;;;;;5054233;28;20033;-58
2023/12/22 02:09:27;;;;;;;5.85;4.50;;;;;;;;;;5020377;28;20122;-58
2023/12/22 02:11:52;;;;;;;5.93;4.85;;;;;;;;;;5045053;28;20457;-58
2023/12/22 02:14:18;;;;;;;7.35;5.60;;;;;;;;;;5023097;28;20484;-58
2023/12/22 02:16:47;;;;;;;7.00;4.70;;;;;;;;;;5057053;28;20037;-58
2023/12/22 02:19:16;;;;;;;5.97;4.47;;;;;;;;;;5030240;28;20037;-58
2023/12/22 02:22:03;;;;;;;6.25;4.82;;;;;;;;;;5026350;28;20049;-58
2023/12/22 02:24:30;;;;;;;5.95;4.88;;;;;;;;;;5042274;28;20530;-59
2023/12/22 02:26:55;;;;;;;6.35;4.38;;;;;;;;;;5042154;28;20045;-58
2023/12/22 02:29:21;;;;;;;6.28;4.82;;;;;;;;;;5038626;28;20585;-58
2023/12/22 02:31:48;;;;;;;5.47;4.50;;;;;;;;;;5040845;28;20027;-58
2023/12/22 02:34:14;;;;;;;6.68;4.88;;;;;;;;;;5034612;28;20028;-58
2023/12/22 02:36:39;;;;;;;5.65;4.40;;;;;;;;;;5042028;28;20498;-58
2023/12/22 02:39:04;;;;;;;6.15;4.90;;;;;;;;;;5036809;28;20040;-57
2023/12/22 02:41:30;;;;;;;6.93;5.18;;;;;;;;;;5023409;28;20030;-58
2023/12/22 02:43:55;;;;;;;5.85;4.57;;;;;;;;;;5030195;28;20396;-58
2023/12/22 02:46:20;;;;;;;6.05;4.72;;;;;;;;;;5035143;28;20024;-58
2023/12/22 02:48:46;;;;;;;6.00;4.45;;;;;;;;;;5050117;28;20108;-58
2023/12/22 02:51:11;;;;;;;7.38;5.18;;;;;;;;;;5044430;28;20056;-58
2023/12/22 02:53:36;;;;;;;6.32;5.25;;;;;;;;;;5037363;28;20023;-58
2023/12/22 02:56:02;;;;;;;5.95;4.75;;;;;;;;;;5036390;28;20029;-58
2023/12/22 02:58:28;;;;;;;6.05;4.65;;;;;;;;;;5037819;28;20522;-58
2023/12/22 03:00:53;;;;;;;6.95;4.80;;;;;;;;;;5044063;28;20032;-58
2023/12/22 03:03:18;;;;;;;7.38;5.03;;;;;;;;;;5056086;28;20024;-58
2023/12/22 03:05:43;;;;;;;6.18;4.63;;;;;;;;;;5057970;28;20017;-58
2023/12/22 03:08:09;;;;;;;6.25;4.70;;;;;;;;;;5043729;28;20040;-58
2023/12/22 03:10:34;;;;;;;7.30;5.05;;;;;;;;;;5042490;28;20040;-59
2023/12/22 03:12:59;;;;;;;6.57;4.95;;;;;;;;;;5046190;28;20032;-59
2023/12/22 03:15:25;;;;;;;6.65;4.80;;;;;;;;;;5062358;28;20053;-59
2023/12/22 03:17:50;;;;;;;5.90;4.63;;;;;;;;;;5042847;28;20023;-59
2023/12/22 03:20:16;;;;;;;6.90;4.93;;;;;;;;;;5051516;28;20482;-59
2023/12/22 03:22:41;;;;;;;6.40;4.88;;;;;;;;;;5045286;28;20025;-59
2023/12/22 03:25:07;;;;;;;6.50;4.75;;;;;;;;;;5044977;28;20075;-59
2023/12/22 03:27:32;;;;;;;5.55;4.68;;;;;;;;;;5044185;28;20071;-58
2023/12/22 03:29:57;;;;;;;6.50;5.13;;;;;;;;;;5028916;28;20045;-59
2023/12/22 03:32:22;;;;;;;6.03;4.88;;;;;;;;;;5045626;28;20112;-59
2023/12/22 03:34:48;;;;;;;7.00;5.07;;;;;;;;;;5061128;28;20020;-59
2023/12/22 03:37:13;;;;;;;5.97;4.82;;;;;;;;;;5041036;28;20450;-59
2023/12/22 03:39:38;;;;;;;5.95;4.60;;;;;;;;;;5039541;28;20033;-59
2023/12/22 03:42:04;;;;;;;6.60;4.63;;;;;;;;;;5051445;28;20033;-59
2023/12/22 03:44:29;;;;;;;6.78;4.82;;;;;;;;;;5043592;28;20060;-59
2023/12/22 03:46:55;;;;;;;5.82;4.72;;;;;;;;;;5058741;28;20037;-59
2023/12/22 03:49:21;;;;;;;5.70;4.50;;;;;;;;;;5055594;28;20029;-59
2023/12/22 03:51:46;;;;;;;6.63;5.22;;;;;;;;;;5044032;28;20106;-59
2023/12/22 03:54:11;;;;;;;5.80;4.75;;;;;;;;;;5046231;28;20032;-59
2023/12/22 03:56:37;;;;;;;6.07;4.70;;;;;;;;;;5044114;28;20126;-59
2023/12/22 03:59:02;;;;;;;6.82;4.63;;;;;;;;;;5035350;28;20423;-59
2023/12/22 04:01:27;;;;;;;5.35;4.43;;;;;;;;;;5056737;28;20507;-59
2023/12/22 04:03:52;;;;;;;6.47;4.68;;;;;;;;;;5043392;28;20037;-59
2023/12/22 04:06:18;;;;;;;6.65;4.85;;;;;;;;;;5039559;28;20037;-60
2023/12/22 04:08:43;;;;;;;6.13;4.80;;;;;;;;;;5047853;28;20040;-59
2023/12/22 04:11:08;;;;;;;6.07;4.45;;;;;;;;;;5043246;28;20931;-59
2023/12/22 04:13:34;;;;;;;6.75;4.40;;;;;;;;;;5018919;28;20074;-59
2023/12/22 04:15:59;;;;;;;6.53;4.53;;;;;;;;;;5041528;28;21113;-59
2023/12/22 04:18:24;;;;;;;6.30;4.93;;;;;;;;;;5038345;28;20360;-59
2023/12/22 04:20:53;;;;;;;6.95;4.85;;;;;;;;;;5045539;28;20099;-59
2023/12/22 04:23:18;;;;;;;7.35;4.78;;;;;;;;;;5024129;28;20137;-59
2023/12/22 04:25:44;;;;;;;6.97;5.28;;;;;;;;;;5038258;28;20056;-59
2023/12/22 04:28:09;;;;;;;6.05;4.63;;;;;;;;;;5046776;28;20032;-59
2023/12/22 04:30:35;;;;;;;5.78;4.57;;;;;;;;;;5021447;28;20430;-60
2023/12/22 04:33:00;;;;;;;5.25;4.68;;;;;;;;;;5033054;28;20116;-59
2023/12/22 04:35:26;;;;;;;6.90;4.78;;;;;;;;;;5049400;28;20127;-59
2023/12/22 04:37:51;;;;;;;5.95;4.45;;;;;;;;;;5032853;28;20039;-59
2023/12/22 04:40:16;;;;;;;6.40;4.95;;;;;;;;;;5041372;28;20052;-59
2023/12/22 04:42:41;;;;;;;5.50;4.40;;;;;;;;;;5061252;28;20040;-60
2023/12/22 04:45:07;;;;;;;6.70;4.85;;;;;;;;;;5043381;28;20033;-59
2023/12/22 04:47:32;;;;;;;6.10;4.70;;;;;;;;;;5031240;28;20099;-60
2023/12/22 04:49:58;;;;;;;5.65;4.60;;;;;;;;;;5041257;28;20379;-60
2023/12/22 04:52:23;;;;;;;5.78;4.28;;;;;;;;;;5025505;28;20503;-59
2023/12/22 04:54:48;;;;;;;5.75;4.47;;;;;;;;;;5028216;28;20128;-60
2023/12/22 04:57:14;;;;;;;5.97;4.68;;;;;;;;;;5023726;28;20037;-59
2023/12/22 04:59:39;;;;;;;6.88;4.65;;;;;;;;;;5037346;28;20119;-60
2023/12/22 05:02:04;;;;;;;6.15;4.40;;;;;;;;;;5035464;28;20125;-60
2023/12/22 05:04:29;;;;;;;6.32;4.75;;;;;;;;;;5031076;28;20679;-59
2023/12/22 05:06:55;;;;;;;5.80;4.40;;;;;;;;;;5034958;28;20487;-60
2023/12/22 05:09:20;;;;;;;5.95;4.40;;;;;;;;;;5039212;28;20091;-59
2023/12/22 05:11:46;;;;;;;7.00;4.82;;;;;;;;;;5016030;28;20028;-59
2023/12/22 05:14:11;;;;;;;6.18;4.63;;;;;;;;;;5035283;28;20521;-59
2023/12/22 05:16:36;;;;;;;6.93;4.35;;;;;;;;;;5029719;28;20483;-59
2023/12/22 05:19:02;;;;;;;5.95;4.22;;;;;;;;;;5027511;28;20041;-59
2023/12/22 05:21:30;;;;;;;6.05;4.63;;;;;;;;;;5035762;28;20099;-59
2023/12/22 05:23:55;;;;;;;6.35;4.63;;;;;;;;;;5036807;28;20130;-59
2023/12/22 05:26:21;;;;;;;6.47;4.78;;;;;;;;;;5036094;28;20436;-59
2023/12/22 05:28:46;;;;;;;6.20;4.47;;;;;;;;;;5034685;28;20037;-59
2023/12/22 05:31:12;;;;;;;6.88;4.63;;;;;;;;;;5037302;28;20445;-59
2023/12/22 05:33:37;;;;;;;5.55;4.40;;;;;;;;;;5036949;28;20495;-59
2023/12/22 05:36:03;;;;;;;6.35;4.80;;;;;;;;;;5038068;28;20371;-59
2023/12/22 05:38:28;;;;;;;6.60;4.50;;;;;;;;;;5012997;28;20034;-58
2023/12/22 05:40:53;;;;;;;7.63;4.80;;;;;;;;;;5036671;28;20051;-59
2023/12/22 05:43:19;;;;;;;7.00;4.40;;;;;;;;;;5036292;28;20053;-59
2023/12/22 05:45:44;;;;;;;6.82;4.90;;;;;;;;;;5033099;28;20487;-59
2023/12/22 05:48:09;;;;;;;6.07;4.43;;;;;;;;;;5035311;28;20443;-59
2023/12/22 05:50:34;;;;;;;6.25;4.80;;;;;;;;;;5035266;28;20033;-58
2023/12/22 05:53:00;;;;;;;5.20;4.32;;;;;;;;;;5037739;28;20033;-58
2023/12/22 05:55:25;;;;;;;5.88;4.53;;;;;;;;;;5029450;28;20041;-59
2023/12/22 05:57:50;;;;;;;6.10;4.35;;;;;;;;;;5036404;28;20359;-59
2023/12/22 06:00:17;;;;;;;5.68;4.50;;;;;;;;;;5034207;28;20499;-59
2023/12/22 06:02:42;;;;;;;5.03;4.00;;;;;;;;;;5037969;28;20029;-58
2023/12/22 06:05:07;;;;;;;5.00;4.10;;;;;;;;;;5039138;28;20398;-60
2023/12/22 06:07:33;;;;;;;6.10;4.53;;;;;;;;;;5030691;28;20449;-59
2023/12/22 06:09:58;;;;;;;5.93;4.30;;;;;;;;;;5037376;28;20033;-59
2023/12/22 06:12:23;;;;;;;5.60;4.20;;;;;;;;;;5043603;28;20033;-59
2023/12/22 06:14:49;;;;;;;4.90;4.18;;;;;;;;;;5041004;28;20095;-60
2023/12/22 06:17:14;;;;;;;5.30;4.38;;;;;;;;;;5037465;28;20072;-59
2023/12/22 06:19:39;;;;;;;6.03;4.00;;;;;;;;;;5039629;28;20044;-61
2023/12/22 06:22:05;;;;;;;5.25;4.13;;;;;;;;;;5041221;28;20172;-60
2023/12/22 06:24:31;;;;;;;5.38;4.10;;;;;;;;;;5040112;28;20033;-59
2023/12/22 06:26:56;;;;;;;6.22;4.28;;;;;;;;;;5041047;28;20511;-60
2023/12/22 06:29:21;;;;;;;5.00;4.10;;;;;;;;;;5033399;28;20570;-58
2023/12/22 06:31:50;;;;;;;5.95;4.10;;;;;;;;;;5038672;28;20045;-59
2023/12/22 06:34:16;;;;;;;5.43;4.18;;;;;;;;;;5038250;28;20425;-59
2023/12/22 06:36:42;;;;;;;5.28;4.13;;;;;;;;;;5039279;28;20025;-60
2023/12/22 06:39:08;;;;;;;5.63;4.07;;;;;;;;;;5042762;28;20085;-59
2023/12/22 06:41:33;;;;;;;5.57;4.28;;;;;;;;;;5040060;28;20041;-59
2023/12/22 06:44:01;;;;;;;5.60;4.25;;;;;;;;;;5037630;28;20037;-59
2023/12/22 06:46:26;;;;;;;5.30;3.92;;;;;;;;;;5040299;28;20141;-59
2023/12/22 06:48:52;;;;;;;5.32;4.28;;;;;;;;;;5016716;28;20058;-60
2023/12/22 06:51:20;;;;;;;5.68;4.20;;;;;;;;;;5042011;28;20037;-59
2023/12/22 06:53:46;;;;;;;6.47;4.57;;;;;;;;;;5040209;28;20037;-60
2023/12/22 06:56:18;;;;;;;7.28;4.20;;;;;;;;;;5040991;28;20045;-59
2023/12/22 06:58:46;;;;;;;4.60;3.85;;;;;;;;;;5043295;28;20040;-59
2023/12/22 07:01:11;;;;;;;4.78;4.03;;;;;;;;;;5038995;28;20056;-60
2023/12/22 07:03:37;;;;;;;5.65;3.83;;;;;;;;;;5038100;28;20124;-60
2023/12/22 07:06:02;;;;;;;4.55;3.53;;;;;;;;;;5038600;28;20032;-60
2023/12/22 07:08:28;;;;;;;4.55;3.90;;;;;;;;;;5037452;28;20102;-60
2023/12/22 07:10:53;;;;;;;5.45;3.83;;;;;;;;;;5028870;28;20636;-60
2023/12/22 07:13:18;;;;;;;6.70;4.43;;;;;;;;;;5038702;28;20440;-59
2023/12/22 07:15:44;;;;;;;5.35;4.00;;;;;;;;;;5040013;28;20580;-58
2023/12/22 07:18:09;;;;;;;5.55;4.28;;;;;;;;;;5023275;28;20431;-58
2023/12/22 07:20:34;;;;;;;7.47;4.40;;;;;;;;;;5037392;28;20382;-60
2023/12/22 07:22:59;;;;;;;5.25;3.80;;;;;;;;;;5035921;28;20576;-61
2023/12/22 07:25:25;;;;;;;7.38;4.25;;;;;;;;;;5038193;28;20037;-61
2023/12/22 07:27:51;;;;;;;6.95;3.97;;;;;;;;;;5023351;28;20601;-60
2023/12/22 07:30:17;;;;;;;5.35;4.05;;;;;;;;;;5037071;28;20187;-59
2023/12/22 07:32:47;;;;;;;5.57;4.22;;;;;;;;;;5035463;28;21719;-61
2023/12/22 07:35:12;;;;;;;5.13;3.72;;;;;;;;;;5038443;28;20037;-60
2023/12/22 07:37:38;;;;;;;6.00;4.18;;;;;;;;;;5036684;28;20043;-61
2023/12/22 07:40:04;;;;;;;4.53;3.50;;;;;;;;;;5040222;28;20469;-63
2023/12/22 07:42:29;;;;;;;5.72;4.18;;;;;;;;;;5018034;28;20044;-61
2023/12/22 07:44:54;;;;;;;5.43;3.80;;;;;;;;;;5038865;28;20044;-60
2023/12/22 07:47:20;;;;;;;5.82;3.97;;;;;;;;;;5015405;28;20515;-61
2023/12/22 07:49:45;;;;;;;4.65;3.70;;;;;;;;;;5034455;28;20041;-61
2023/12/22 07:52:10;;;;;;;5.32;3.88;;;;;;;;;;5029146;28;20043;-60
2023/12/22 07:54:36;;;;;;;5.20;3.90;;;;;;;;;;5033241;28;20035;-60
2023/12/22 07:57:01;;;;;;;4.82;3.63;;;;;;;;;;5015976;28;20392;-61
2023/12/22 07:59:26;;;;;;;5.57;3.90;;;;;;;;;;5017852;28;20041;-61
2023/12/22 08:01:52;;;;;;;4.72;3.70;;;;;;;;;;5031752;28;20053;-59
2023/12/22 08:04:17;;;;;;;5.20;3.88;;;;;;;;;;5033933;28;20033;-60
2023/12/22 08:06:42;;;;;;;4.80;3.63;;;;;;;;;;5034953;28;20115;-61
2023/12/22 08:09:08;;;;;;;6.00;4.10;;;;;;;;;;5036908;28;20053;-59
2023/12/22 08:11:33;;;;;;;5.40;3.88;;;;;;;;;;5035957;28;20052;-60
2023/12/22 08:13:58;;;;;;;6.85;4.22;;;;;;;;;;5034830;28;20048;-59
2023/12/22 08:16:24;;;;;;;5.30;3.58;;;;;;;;;;5039029;28;20055;-59
2023/12/22 08:18:50;;;;;;;5.13;3.72;;;;;;;;;;5033392;28;20044;-59
2023/12/22 08:21:16;;;;;;;6.93;3.83;;;;;;;;;;5036324;28;20048;-60
2023/12/22 08:23:42;;;;;;;4.70;3.80;;;;;;;;;;5030778;28;20116;-60
2023/12/22 08:26:07;;;;;;;4.82;3.70;;;;;;;;;;5035557;28;20131;-60
2023/12/22 08:28:32;;;;;;;5.38;4.13;;;;;;;;;;5039685;28;20499;-60
2023/12/22 08:30:58;;;;;;;5.25;3.90;;;;;;;;;;5040086;28;20558;-59
2023/12/22 08:33:23;;;;;;;5.25;4.20;;;;;;;;;;5038878;28;20033;-60
2023/12/22 08:35:48;;;;;;;5.43;3.92;;;;;;;;;;5038017;28;20042;-59
2023/12/22 08:38:15;;;;;;;5.72;4.13;;;;;;;;;;5028951;28;20649;-59
2023/12/22 08:40:40;;;;;;;5.30;3.65;;;;;;;;;;5039035;28;20049;-60
2023/12/22 08:43:06;;;;;;;5.35;4.10;;;;;;;;;;5029012;28;20132;-60
2023/12/22 08:45:31;;;;;;;5.82;3.97;;;;;;;;;;5036523;28;20041;-60
2023/12/22 08:47:57;;;;;;;5.07;3.80;;;;;;;;;;5034606;28;20040;-60
2023/12/22 08:50:22;;;;;;;5.18;3.70;;;;;;;;;;5033303;28;20148;-62
2023/12/22 08:52:47;;;;;;;5.70;4.10;;;;;;;;;;5029629;28;20021;-61
2023/12/22 08:55:13;;;;;;;4.80;3.58;;;;;;;;;;5036188;28;20632;-61
2023/12/22 08:57:39;;;;;;;6.47;4.10;;;;;;;;;;5032947;28;20029;-61
2023/12/22 09:00:05;;;;;;;4.78;3.67;;;;;;;;;;5033730;28;20056;-60
2023/12/22 09:02:30;;;;;;;4.22;3.33;;;;;;;;;;5030835;28;20033;-60
2023/12/22 09:04:55;;;;;;;4.43;3.60;;;;;;;;;;5033273;28;20124;-61
2023/12/22 09:07:22;;;;;;;4.75;3.67;;;;;;;;;;5033897;28;20037;-60
2023/12/22 09:09:47;;;;;;;5.40;3.60;;;;;;;;;;5016403;28;20529;-60
2023/12/22 09:12:13;;;;;;;5.18;3.65;;;;;;;;;;5034449;28;20033;-59
2023/12/22 09:14:38;;;;;;;5.07;3.67;;;;;;;;;;5037274;28;20029;-60
2023/12/22 09:17:03;;;;;;;5.97;3.80;;;;;;;;;;5035557;28;20572;-60
2023/12/22 09:19:29;;;;;;;4.70;3.70;;;;;;;;;;5033572;28;20041;-60
2023/12/22 09:21:54;;;;;;;5.55;4.15;;;;;;;;;;5015835;28;20056;-61
2023/12/22 09:24:19;;;;;;;5.30;3.72;;;;;;;;;;5034078;28;20095;-60
2023/12/22 09:26:45;;;;;;;4.68;3.63;;;;;;;;;;5033933;28;20037;-60
2023/12/22 09:29:10;;;;;;;6.50;4.20;;;;;;;;;;5034691;28;20029;-58
2023/12/22 09:31:35;;;;;;;4.53;3.70;;;;;;;;;;5033156;28;20094;-59
2023/12/22 09:34:01;;;;;;;5.47;3.80;;;;;;;;;;5037048;28;20138;-58
2023/12/22 09:36:26;;;;;;;5.10;3.72;;;;;;;;;;5040215;28;20037;-58
2023/12/22 09:38:51;;;;;;;5.38;3.90;;;;;;;;;;5037958;28;20047;-59
2023/12/22 09:41:17;;;;;;;5.20;3.85;;;;;;;;;;5036508;28;20060;-60
2023/12/22 09:43:43;;;;;;;5.78;3.95;;;;;;;;;;5036584;28;20477;-59
2023/12/22 09:46:09;;;;;;;6.65;4.10;;;;;;;;;;5037663;28;20128;-61
2023/12/22 09:48:35;;;;;;;5.13;4.03;;;;;;;;;;5016887;28;20170;-61
2023/12/22 09:51:01;;;;;;;6.75;3.72;;;;;;;;;;5037591;28;20041;-60
2023/12/22 09:53:26;;;;;;;5.82;3.83;;;;;;;;;;5030449;28;20044;-60
2023/12/22 09:55:52;;;;;;;6.05;3.85;;;;;;;;;;5032703;28;20060;-60
2023/12/22 09:58:17;;;;;;;4.63;3.47;;;;;;;;;;5031768;28;20379;-58
2023/12/22 10:00:43;;;;;;;5.10;3.88;;;;;;;;;;5023406;28;20065;-57
2023/12/22 10:03:09;;;;;;;5.55;4.20;;;;;;;;;;5037929;28;20144;-57
2023/12/22 10:05:34;;;;;;;5.55;4.00;;;;;;;;;;5035282;28;20991;-57
2023/12/22 10:08:00;;;;;;;6.75;3.88;;;;;;;;;;5037458;28;20029;-57
2023/12/22 10:10:25;;;;;;;5.15;3.60;;;;;;;;;;5018000;28;20080;-57
2023/12/22 10:12:51;;;;;;;4.85;3.85;;;;;;;;;;5037966;28;20551;-58
2023/12/22 10:15:16;;;;;;;5.10;3.80;;;;;;;;;;5035985;28;20179;-58
2023/12/22 10:17:41;;;;;;;5.13;3.63;;;;;;;;;;5038879;28;20029;-58
2023/12/22 10:20:08;;;;;;;5.80;3.70;;;;;;;;;;5040927;28;20088;-58
2023/12/22 10:22:34;;;;;;;5.97;3.47;;;;;;;;;;5037793;28;20120;-58
2023/12/22 10:24:59;;;;;;;5.55;3.85;;;;;;;;;;5035176;28;20065;-59
2023/12/22 10:27:25;;;;;;;5.22;3.80;;;;;;;;;;5031475;28;20032;-59
2023/12/22 10:29:50;;;;;;;6.15;3.50;;;;;;;;;;5038643;28;20432;-58
2023/12/22 10:32:16;;;;;;;4.82;3.65;;;;;;;;;;5040254;28;20051;-59
2023/12/22 10:34:41;;;;;;;4.75;3.75;;;;;;;;;;5016395;28;20041;-59
2023/12/22 10:37:06;;;;;;;5.43;3.90;;;;;;;;;;5030231;28;20044;-59
2023/12/22 10:39:32;;;;;;;5.45;4.03;;;;;;;;;;5040818;28;20064;-59
2023/12/22 10:41:57;;;;;;;5.22;4.00;;;;;;;;;;5041621;28;20725;-59
2023/12/22 10:44:26;;;;;;;5.72;3.95;;;;;;;;;;5041691;28;20771;-59
2023/12/22 10:46:52;;;;;;;4.78;3.67;;;;;;;;;;5039473;28;20082;-58
2023/12/22 10:49:18;;;;;;;5.38;3.72;;;;;;;;;;5038732;28;20546;-59
2023/12/22 10:51:43;;;;;;;6.80;3.97;;;;;;;;;;5041780;28;20064;-59
2023/12/22 10:54:09;;;;;;;5.07;3.65;;;;;;;;;;5016715;28;20191;-59
2023/12/22 10:56:34;;;;;;;5.05;3.78;;;;;;;;;;5037968;28;20080;-59
2023/12/22 10:59:01;;;;;;;4.90;3.63;;;;;;;;;;5041108;28;20116;-59
2023/12/22 11:01:29;;;;;;;5.75;3.90;;;;;;;;;;5039594;28;20040;-58
2023/12/22 11:03:55;;;;;;;6.90;3.90;;;;;;;;;;5037014;28;21023;-58
2023/12/22 11:06:20;;;;;;;4.97;3.33;;;;;;;;;;5039670;28;20100;-60
2023/12/22 11:08:45;;;;;;;4.90;3.63;;;;;;;;;;5039438;28;20033;-60
2023/12/22 11:11:16;;;;;;;6.22;4.05;;;;;;;;;;5040498;28;20043;-60
2023/12/22 11:13:41;;;;;;;5.18;3.97;;;;;;;;;;5028047;28;20061;-59
2023/12/22 11:16:06;;;;;;;5.50;3.90;;;;;;;;;;5020480;28;20027;-59
2023/12/22 11:18:32;;;;;;;5.32;3.45;;;;;;;;;;5020765;28;20025;-60
2023/12/22 11:20:57;;;;;;;5.45;3.70;;;;;;;;;;5042625;28;20036;-60
2023/12/22 11:23:23;;;;;;;7.07;3.95;;;;;;;;;;5001842;28;20025;-61
2023/12/22 11:25:49;;;;;;;4.68;3.63;;;;;;;;;;5042229;28;20493;-60
2023/12/22 11:28:15;;;;;;;4.32;3.47;;;;;;;;;;5019407;28;20035;-60
2023/12/22 11:30:40;;;;;;;4.38;3.60;;;;;;;;;;5019167;28;20455;-61
2023/12/22 11:33:05;;;;;;;4.95;3.47;;;;;;;;;;5035897;28;21804;-60
2023/12/22 11:35:31;;;;;;;4.68;3.63;;;;;;;;;;5019453;28;20027;-61
2023/12/22 11:37:56;;;;;;;5.45;3.88;;;;;;;;;;5037737;28;20025;-61
2023/12/22 11:40:21;;;;;;;4.47;3.33;;;;;;;;;;5037648;28;20127;-61
2023/12/22 11:42:47;;;;;;;6.15;4.00;;;;;;;;;;5011751;28;20040;-60
2023/12/22 11:45:15;;;;;;;5.78;3.92;;;;;;;;;;5014878;28;20013;-60
2023/12/22 11:47:40;;;;;;;5.35;3.85;;;;;;;;;;5018811;28;20507;-60
2023/12/22 11:50:09;;;;;;;6.05;3.80;;;;;;;;;;5037403;28;20036;-60
2023/12/22 11:52:35;;;;;;;6.90;4.00;;;;;;;;;;5012185;28;20036;-60
2023/12/22 11:55:00;;;;;;;5.57;4.13;;;;;;;;;;5016675;28;20024;-60
2023/12/22 11:57:29;;;;;;;6.38;4.15;;;;;;;;;;5037313;28;20396;-60
2023/12/22 11:59:55;;;;;;;4.95;3.72;;;;;;;;;;5018704;28;20048;-61
2023/12/22 12:02:20;;;;;;;6.65;3.80;;;;;;;;;;5037222;28;20041;-62
2023/12/22 12:04:52;;;;;;;5.40;3.80;;;;;;;;;;5035035;28;20041;-63
2023/12/22 12:07:36;;;;;;;5.25;3.58;;;;;;;;;;5037620;28;20811;-58
2023/12/22 12:10:01;;;;;;;5.93;4.20;;;;;;;;;;5036831;28;20064;-59
2023/12/22 12:12:26;;;;;;;4.10;3.28;;;;;;;;;;5038308;28;20862;-57
2023/12/22 12:14:54;;;;;;;5.25;3.72;;;;;;;;;;5035596;28;20061;-58
2023/12/22 12:17:20;;;;;;;5.45;3.47;;;;;;;;;;5021562;28;20903;-57
2023/12/22 12:19:45;;;;;;;6.20;3.50;;;;;;;;;;5038588;28;20040;-59
2023/12/22 12:22:14;;;;;;;5.70;3.75;;;;;;;;;;5037239;28;20132;-58
2023/12/22 12:24:39;;;;;;;7.03;3.65;;;;;;;;;;5038347;28;20029;-58
2023/12/22 12:27:04;;;;;;;4.80;3.38;;;;;;;;;;5041824;28;20037;-58
2023/12/22 12:29:30;;;;;;;5.10;3.50;;;;;;;;;;5038334;28;20128;-59
2023/12/22 12:32:02;;;;;;;5.88;3.90;;;;;;;;;;5040730;28;20033;-59
2023/12/22 12:34:27;;;;;;;4.35;3.22;;;;;;;;;;5005887;28;20056;-59
2023/12/22 12:36:53;;;;;;;5.45;3.60;;;;;;;;;;5032135;28;20516;-57
2023/12/22 12:39:19;;;;;;;5.85;3.55;;;;;;;;;;5040328;28;20039;-61
2023/12/22 12:41:45;;;;;;;5.60;3.72;;;;;;;;;;5019362;28;20057;-59
2023/12/22 12:44:10;;;;;;;5.43;3.53;;;;;;;;;;5038448;28;20475;-58
2023/12/22 12:46:36;;;;;;;5.40;3.40;;;;;;;;;;5038277;28;20025;-58
2023/12/22 12:49:05;;;;;;;5.40;2.97;;;;;;;;;;5015885;28;20479;-59
2023/12/22 12:51:31;;;;;;;5.97;3.70;;;;;;;;;;5017562;28;20075;-60
2023/12/22 12:53:57;;;;;;;5.30;3.30;;;;;;;;;;5019396;28;20037;-58
2023/12/22 12:56:22;;;;;;;4.30;3.10;;;;;;;;;;5038310;28;20045;-59
2023/12/22 12:58:47;;;;;;;6.22;3.25;;;;;;;;;;5036195;28;20044;-58
2023/12/22 13:01:13;;;;;;;6.13;3.53;;;;;;;;;;5038538;28;20041;-59
2023/12/22 13:04:10;;;;;;;5.35;3.20;;;;;;;;;;5037078;28;20515;-59
2023/12/22 13:06:42;;;;;;;4.75;2.78;;;;;;;;;;4987610;28;20045;-59
2023/12/22 13:09:08;;;;;;;5.40;3.17;;;;;;;;;;5036681;28;20116;-59
2023/12/22 13:11:34;;;;;;;5.68;3.08;;;;;;;;;;5038501;28;20041;-59
2023/12/22 13:14:00;;;;;;;6.25;3.17;;;;;;;;;;5015155;28;20129;-59
2023/12/22 13:16:32;;;;;;;5.55;2.92;;;;;;;;;;5012147;28;20529;-59
2023/12/22 13:19:00;;;;;;;5.45;3.20;;;;;;;;;;5014465;28;20554;-61
2023/12/22 13:21:26;;;;;;;5.25;3.45;;;;;;;;;;5022342;28;20074;-60
2023/12/22 13:24:10;;;;;;;4.97;3.20;;;;;;;;;;5039292;28;20025;-59
2023/12/22 13:26:36;;;;;;;5.75;3.05;;;;;;;;;;5039034;28;20048;-58
2023/12/22 13:29:01;;;;;;;5.78;3.22;;;;;;;;;;5041338;28;20012;-58
2023/12/22 13:31:26;;;;;;;4.95;3.00;;;;;;;;;;5035776;28;20017;-58
2023/12/22 13:33:52;;;;;;;4.40;3.00;;;;;;;;;;5026467;28;20017;-60
2023/12/22 13:36:17;;;;;;;4.15;3.05;;;;;;;;;;5040137;28;20032;-59
2023/12/22 13:38:46;;;;;;;4.53;2.90;;;;;;;;;;5039811;28;20111;-59
2023/12/22 13:41:12;;;;;;;5.53;3.00;;;;;;;;;;4999061;28;20514;-59
2023/12/22 13:43:37;;;;;;;5.03;2.80;;;;;;;;;;5021941;28;20029;-59
2023/12/22 13:46:03;;;;;;;3.88;2.70;;;;;;;;;;5038784;28;20028;-59
2023/12/22 13:48:29;;;;;;;4.60;3.00;;;;;;;;;;5008373;28;20529;-58
2023/12/22 13:50:58;;;;;;;4.88;2.92;;;;;;;;;;5035624;28;20824;-58
2023/12/22 13:53:23;;;;;;;6.07;2.97;;;;;;;;;;5038381;28;20155;-58
2023/12/22 13:55:55;;;;;;;3.85;2.75;;;;;;;;;;5038048;28;20108;-57
2023/12/22 13:58:20;;;;;;;4.18;2.80;;;;;;;;;;5039424;28;20454;-59
2023/12/22 14:00:46;;;;;;;5.07;2.58;;;;;;;;;;5037727;28;20052;-59
2023/12/22 14:03:11;;;;;;;4.28;2.70;;;;;;;;;;5033450;28;20049;-59
2023/12/22 14:05:37;;;;;;;5.10;2.92;;;;;;;;;;5015359;28;20543;-59
2023/12/22 14:08:05;;;;;;;4.35;2.45;;;;;;;;;;5036448;28;20621;-58
2023/12/22 14:10:31;;;;;;;4.25;2.72;;;;;;;;;;5036315;28;20059;-58
2023/12/22 14:12:56;;;;;;;3.50;2.58;;;;;;;;;;5036076;28;20032;-58
2023/12/22 14:15:23;;;;;;;4.03;2.50;;;;;;;;;;5030075;28;20052;-59
2023/12/22 14:17:48;;;;;;;3.95;2.40;;;;;;;;;;5017578;28;20041;-59
2023/12/22 14:20:14;;;;;;;4.60;2.67;;;;;;;;;;5037254;28;20833;-60
2023/12/22 14:22:39;;;;;;;5.50;2.83;;;;;;;;;;5037506;28;20053;-60
2023/12/22 14:25:05;;;;;;;4.93;2.60;;;;;;;;;;5017916;28;20057;-58
2023/12/22 14:27:30;;;;;;;4.65;2.67;;;;;;;;;;5015748;28;20040;-57
2023/12/22 14:29:56;;;;;;;4.55;2.58;;;;;;;;;;5034458;28;20045;-57
2023/12/22 14:32:22;;;;;;;4.00;2.50;;;;;;;;;;5032667;28;20041;-57
2023/12/22 14:34:47;;;;;;;4.03;2.30;;;;;;;;;;5032167;28;20197;-57